sensor_id;sensor_type;location;lat;lon;timestamp;P1;durP1;ratioP1;P2;durP2;ratioP2
65275;SDS011;51875;49.994;14.052;2022-08-23T00:01:13;8.90;;;5.40;;
65275;SDS011;51875;49.994;14.052;2022-08-23T00:02:32;7.78;;;5.65;;
65275;SDS011;51875;49.994;14.052;2022-08-23T00:03:48;7.40;;;5.60;;
65275;SDS011;51875;49.994;14.052;2022-08-23T00:05:05;7.97;;;5.82;;
65275;SDS011;51875;49.994;14.052;2022-08-23T00:06:21;7.30;;;5.22;;
65275;SDS011;51875;49.994;14.052;2022-08-23T00:07:38;7.43;;;5.45;;
65275;SDS011;51875;49.994;14.052;2022-08-23T00:08:56;9.65;;;5.63;;
65275;SDS011;51875;49.994;14.052;2022-08-23T00:10:14;9.82;;;5.70;;
65275;SDS011;51875;49.994;14.052;2022-08-23T00:11:32;9.07;;;5.95;;
65275;SDS011;51875;49.994;14.052;2022-08-23T00:12:49;7.72;;;6.05;;
65275;SDS011;51875;49.994;14.052;2022-08-23T00:14:08;9.43;;;5.32;;
65275;SDS011;51875;49.994;14.052;2022-08-23T00:15:26;11.40;;;5.10;;
65275;SDS011;51875;49.994;14.052;2022-08-23T00:16:42;9.48;;;5.70;;
65275;SDS011;51875;49.994;14.052;2022-08-23T00:17:58;7.97;;;5.40;;
65275;SDS011;51875;49.994;14.052;2022-08-23T00:19:15;9.32;;;5.70;;
65275;SDS011;51875;49.994;14.052;2022-08-23T00:20:32;10.60;;;5.55;;
65275;SDS011;51875;49.994;14.052;2022-08-23T00:21:48;7.63;;;5.50;;
65275;SDS011;51875;49.994;14.052;2022-08-23T00:23:06;11.00;;;5.78;;
65275;SDS011;51875;49.994;14.052;2022-08-23T00:24:22;7.03;;;5.50;;
65275;SDS011;51875;49.994;14.052;2022-08-23T00:25:38;9.02;;;5.15;;
65275;SDS011;51875;49.994;14.052;2022-08-23T00:27:11;9.13;;;5.45;;
65275;SDS011;51875;49.994;14.052;2022-08-23T00:28:28;7.80;;;5.70;;
65275;SDS011;51875;49.994;14.052;2022-08-23T00:29:46;7.60;;;5.32;;
65275;SDS011;51875;49.994;14.052;2022-08-23T00:31:04;9.98;;;5.47;;
65275;SDS011;51875;49.994;14.052;2022-08-23T00:32:26;7.07;;;5.18;;
65275;SDS011;51875;49.994;14.052;2022-08-23T00:33:44;9.70;;;5.93;;
65275;SDS011;51875;49.994;14.052;2022-08-23T00:35:00;8.48;;;5.55;;
65275;SDS011;51875;49.994;14.052;2022-08-23T00:36:16;7.18;;;5.35;;
65275;SDS011;51875;49.994;14.052;2022-08-23T00:37:32;8.73;;;5.95;;
65275;SDS011;51875;49.994;14.052;2022-08-23T00:38:48;11.38;;;5.78;;
65275;SDS011;51875;49.994;14.052;2022-08-23T00:40:08;7.40;;;5.72;;
65275;SDS011;51875;49.994;14.052;2022-08-23T00:41:26;7.95;;;5.88;;
65275;SDS011;51875;49.994;14.052;2022-08-23T00:44:39;9.27;;;5.75;;
65275;SDS011;51875;49.994;14.052;2022-08-23T00:46:22;8.68;;;5.80;;
65275;SDS011;51875;49.994;14.052;2022-08-23T00:48:16;8.00;;;5.30;;
65275;SDS011;51875;49.994;14.052;2022-08-23T00:49:32;7.97;;;5.65;;
65275;SDS011;51875;49.994;14.052;2022-08-23T00:51:33;8.27;;;5.70;;
65275;SDS011;51875;49.994;14.052;2022-08-23T00:52:33;8.38;;;6.22;;
65275;SDS011;51875;49.994;14.052;2022-08-23T00:53:57;8.38;;;5.70;;
65275;SDS011;51875;49.994;14.052;2022-08-23T00:55:15;8.70;;;6.25;;
65275;SDS011;51875;49.994;14.052;2022-08-23T00:56:32;7.22;;;5.07;;
65275;SDS011;51875;49.994;14.052;2022-08-23T00:57:48;8.13;;;5.97;;
65275;SDS011;51875;49.994;14.052;2022-08-23T00:59:05;7.65;;;5.88;;
65275;SDS011;51875;49.994;14.052;2022-08-23T01:00:21;10.63;;;6.05;;
65275;SDS011;51875;49.994;14.052;2022-08-23T01:01:37;9.13;;;6.25;;
65275;SDS011;51875;49.994;14.052;2022-08-23T01:02:52;9.43;;;6.55;;
65275;SDS011;51875;49.994;14.052;2022-08-23T01:04:09;8.05;;;6.07;;
65275;SDS011;51875;49.994;14.052;2022-08-23T01:05:29;9.75;;;5.90;;
65275;SDS011;51875;49.994;14.052;2022-08-23T01:06:54;11.18;;;6.55;;
65275;SDS011;51875;49.994;14.052;2022-08-23T01:08:30;9.98;;;6.07;;
65275;SDS011;51875;49.994;14.052;2022-08-23T01:09:48;8.90;;;5.80;;
65275;SDS011;51875;49.994;14.052;2022-08-23T01:11:09;10.18;;;7.00;;
65275;SDS011;51875;49.994;14.052;2022-08-23T01:12:49;10.82;;;6.45;;
65275;SDS011;51875;49.994;14.052;2022-08-23T01:14:13;9.93;;;6.63;;
65275;SDS011;51875;49.994;14.052;2022-08-23T01:15:37;9.60;;;5.82;;
65275;SDS011;51875;49.994;14.052;2022-08-23T01:17:00;14.02;;;6.18;;
65275;SDS011;51875;49.994;14.052;2022-08-23T01:18:19;8.73;;;6.18;;
65275;SDS011;51875;49.994;14.052;2022-08-23T01:19:40;8.75;;;6.18;;
65275;SDS011;51875;49.994;14.052;2022-08-23T01:22:47;10.30;;;6.45;;
65275;SDS011;51875;49.994;14.052;2022-08-23T01:24:10;10.27;;;6.53;;
65275;SDS011;51875;49.994;14.052;2022-08-23T01:25:28;10.25;;;6.80;;
65275;SDS011;51875;49.994;14.052;2022-08-23T01:26:47;11.18;;;6.95;;
65275;SDS011;51875;49.994;14.052;2022-08-23T01:28:03;9.25;;;7.20;;
65275;SDS011;51875;49.994;14.052;2022-08-23T01:29:18;10.13;;;6.53;;
65275;SDS011;51875;49.994;14.052;2022-08-23T01:30:34;12.43;;;7.10;;
65275;SDS011;51875;49.994;14.052;2022-08-23T01:31:50;11.75;;;6.97;;
65275;SDS011;51875;49.994;14.052;2022-08-23T01:33:06;12.75;;;6.40;;
65275;SDS011;51875;49.994;14.052;2022-08-23T01:34:25;10.48;;;6.43;;
65275;SDS011;51875;49.994;14.052;2022-08-23T01:35:42;8.50;;;6.72;;
65275;SDS011;51875;49.994;14.052;2022-08-23T01:37:04;11.27;;;6.70;;
65275;SDS011;51875;49.994;14.052;2022-08-23T01:38:22;8.77;;;6.25;;
65275;SDS011;51875;49.994;14.052;2022-08-23T01:39:38;10.35;;;7.35;;
65275;SDS011;51875;49.994;14.052;2022-08-23T01:40:54;9.05;;;6.63;;
65275;SDS011;51875;49.994;14.052;2022-08-23T01:42:10;10.10;;;6.60;;
65275;SDS011;51875;49.994;14.052;2022-08-23T01:43:26;10.43;;;6.88;;
65275;SDS011;51875;49.994;14.052;2022-08-23T01:44:42;9.77;;;7.28;;
65275;SDS011;51875;49.994;14.052;2022-08-23T01:45:57;11.43;;;7.65;;
65275;SDS011;51875;49.994;14.052;2022-08-23T01:47:20;10.73;;;6.45;;
65275;SDS011;51875;49.994;14.052;2022-08-23T01:48:36;12.98;;;6.60;;
65275;SDS011;51875;49.994;14.052;2022-08-23T01:49:52;12.93;;;7.55;;
65275;SDS011;51875;49.994;14.052;2022-08-23T01:51:07;10.23;;;7.03;;
65275;SDS011;51875;49.994;14.052;2022-08-23T01:52:23;12.27;;;7.57;;
65275;SDS011;51875;49.994;14.052;2022-08-23T01:53:39;11.88;;;7.00;;
65275;SDS011;51875;49.994;14.052;2022-08-23T01:54:55;11.15;;;6.05;;
65275;SDS011;51875;49.994;14.052;2022-08-23T01:56:11;10.40;;;6.80;;
65275;SDS011;51875;49.994;14.052;2022-08-23T01:57:28;11.68;;;6.93;;
65275;SDS011;51875;49.994;14.052;2022-08-23T01:58:44;10.15;;;6.20;;
65275;SDS011;51875;49.994;14.052;2022-08-23T02:00:00;9.63;;;6.90;;
65275;SDS011;51875;49.994;14.052;2022-08-23T02:01:16;9.27;;;6.28;;
65275;SDS011;51875;49.994;14.052;2022-08-23T02:02:33;10.52;;;7.43;;
65275;SDS011;51875;49.994;14.052;2022-08-23T02:03:49;11.45;;;6.75;;
65275;SDS011;51875;49.994;14.052;2022-08-23T02:05:05;9.77;;;6.38;;
65275;SDS011;51875;49.994;14.052;2022-08-23T02:06:21;10.43;;;6.68;;
65275;SDS011;51875;49.994;14.052;2022-08-23T02:07:37;10.63;;;6.70;;
65275;SDS011;51875;49.994;14.052;2022-08-23T02:08:52;9.50;;;6.85;;
65275;SDS011;51875;49.994;14.052;2022-08-23T02:10:18;11.40;;;6.38;;
65275;SDS011;51875;49.994;14.052;2022-08-23T02:11:35;10.25;;;6.47;;
65275;SDS011;51875;49.994;14.052;2022-08-23T02:12:53;9.95;;;6.75;;
65275;SDS011;51875;49.994;14.052;2022-08-23T02:14:10;9.98;;;7.07;;
65275;SDS011;51875;49.994;14.052;2022-08-23T02:15:30;11.88;;;7.10;;
65275;SDS011;51875;49.994;14.052;2022-08-23T02:16:48;11.07;;;7.88;;
65275;SDS011;51875;49.994;14.052;2022-08-23T02:18:06;11.63;;;6.80;;
65275;SDS011;51875;49.994;14.052;2022-08-23T02:19:22;10.18;;;7.43;;
65275;SDS011;51875;49.994;14.052;2022-08-23T02:20:45;11.15;;;6.28;;
65275;SDS011;51875;49.994;14.052;2022-08-23T02:22:02;9.07;;;6.65;;
65275;SDS011;51875;49.994;14.052;2022-08-23T02:23:20;11.07;;;7.53;;
65275;SDS011;51875;49.994;14.052;2022-08-23T02:24:40;11.52;;;7.28;;
65275;SDS011;51875;49.994;14.052;2022-08-23T02:25:58;10.63;;;6.70;;
65275;SDS011;51875;49.994;14.052;2022-08-23T02:27:15;8.50;;;6.70;;
65275;SDS011;51875;49.994;14.052;2022-08-23T02:28:31;8.88;;;6.50;;
65275;SDS011;51875;49.994;14.052;2022-08-23T02:29:46;10.88;;;6.50;;
65275;SDS011;51875;49.994;14.052;2022-08-23T02:31:02;11.55;;;6.80;;
65275;SDS011;51875;49.994;14.052;2022-08-23T02:32:18;10.57;;;7.03;;
65275;SDS011;51875;49.994;14.052;2022-08-23T02:33:34;13.23;;;7.22;;
65275;SDS011;51875;49.994;14.052;2022-08-23T02:34:50;10.40;;;6.57;;
65275;SDS011;51875;49.994;14.052;2022-08-23T02:36:05;10.02;;;6.80;;
65275;SDS011;51875;49.994;14.052;2022-08-23T02:37:21;9.32;;;6.75;;
65275;SDS011;51875;49.994;14.052;2022-08-23T02:38:37;11.52;;;6.93;;
65275;SDS011;51875;49.994;14.052;2022-08-23T02:39:53;11.60;;;6.60;;
65275;SDS011;51875;49.994;14.052;2022-08-23T02:41:08;10.48;;;7.50;;
65275;SDS011;51875;49.994;14.052;2022-08-23T02:42:24;10.30;;;6.70;;
65275;SDS011;51875;49.994;14.052;2022-08-23T02:43:40;13.23;;;7.90;;
65275;SDS011;51875;49.994;14.052;2022-08-23T02:44:55;9.80;;;6.60;;
65275;SDS011;51875;49.994;14.052;2022-08-23T02:46:11;9.27;;;6.95;;
65275;SDS011;51875;49.994;14.052;2022-08-23T02:47:26;10.55;;;7.25;;
65275;SDS011;51875;49.994;14.052;2022-08-23T02:48:42;12.40;;;7.70;;
65275;SDS011;51875;49.994;14.052;2022-08-23T02:49:58;10.73;;;6.68;;
65275;SDS011;51875;49.994;14.052;2022-08-23T02:51:13;9.27;;;7.15;;
65275;SDS011;51875;49.994;14.052;2022-08-23T02:52:30;13.00;;;7.47;;
65275;SDS011;51875;49.994;14.052;2022-08-23T02:53:46;9.80;;;6.75;;
65275;SDS011;51875;49.994;14.052;2022-08-23T02:55:02;9.13;;;6.80;;
65275;SDS011;51875;49.994;14.052;2022-08-23T02:56:18;9.95;;;7.13;;
65275;SDS011;51875;49.994;14.052;2022-08-23T02:57:34;11.60;;;7.88;;
65275;SDS011;51875;49.994;14.052;2022-08-23T02:58:50;11.57;;;7.13;;
65275;SDS011;51875;49.994;14.052;2022-08-23T03:00:07;9.93;;;6.75;;
65275;SDS011;51875;49.994;14.052;2022-08-23T03:01:25;11.48;;;7.32;;
65275;SDS011;51875;49.994;14.052;2022-08-23T03:02:44;13.98;;;6.95;;
65275;SDS011;51875;49.994;14.052;2022-08-23T03:04:00;12.02;;;6.78;;
65275;SDS011;51875;49.994;14.052;2022-08-23T03:05:17;10.77;;;6.80;;
65275;SDS011;51875;49.994;14.052;2022-08-23T03:06:33;9.95;;;7.72;;
65275;SDS011;51875;49.994;14.052;2022-08-23T03:07:49;10.70;;;6.72;;
65275;SDS011;51875;49.994;14.052;2022-08-23T03:09:05;10.70;;;7.30;;
65275;SDS011;51875;49.994;14.052;2022-08-23T03:10:21;9.32;;;6.15;;
65275;SDS011;51875;49.994;14.052;2022-08-23T03:11:40;10.45;;;6.50;;
65275;SDS011;51875;49.994;14.052;2022-08-23T03:12:58;11.50;;;7.30;;
65275;SDS011;51875;49.994;14.052;2022-08-23T03:14:15;9.20;;;6.78;;
65275;SDS011;51875;49.994;14.052;2022-08-23T03:15:31;8.75;;;6.78;;
65275;SDS011;51875;49.994;14.052;2022-08-23T03:16:47;12.05;;;7.13;;
65275;SDS011;51875;49.994;14.052;2022-08-23T03:18:02;9.73;;;6.70;;
65275;SDS011;51875;49.994;14.052;2022-08-23T03:19:18;10.93;;;6.07;;
65275;SDS011;51875;49.994;14.052;2022-08-23T03:20:34;11.02;;;6.97;;
65275;SDS011;51875;49.994;14.052;2022-08-23T03:21:50;10.85;;;6.78;;
65275;SDS011;51875;49.994;14.052;2022-08-23T03:23:07;10.85;;;6.38;;
65275;SDS011;51875;49.994;14.052;2022-08-23T03:24:23;7.82;;;6.25;;
65275;SDS011;51875;49.994;14.052;2022-08-23T03:25:39;11.90;;;6.55;;
65275;SDS011;51875;49.994;14.052;2022-08-23T03:26:55;8.45;;;6.93;;
65275;SDS011;51875;49.994;14.052;2022-08-23T03:28:10;10.10;;;6.88;;
65275;SDS011;51875;49.994;14.052;2022-08-23T03:29:26;10.18;;;6.78;;
65275;SDS011;51875;49.994;14.052;2022-08-23T03:30:41;12.25;;;7.18;;
65275;SDS011;51875;49.994;14.052;2022-08-23T03:31:57;11.25;;;7.38;;
65275;SDS011;51875;49.994;14.052;2022-08-23T03:33:13;10.40;;;6.97;;
65275;SDS011;51875;49.994;14.052;2022-08-23T03:34:29;9.02;;;6.35;;
65275;SDS011;51875;49.994;14.052;2022-08-23T03:35:45;11.00;;;6.82;;
65275;SDS011;51875;49.994;14.052;2022-08-23T03:37:01;11.27;;;6.93;;
65275;SDS011;51875;49.994;14.052;2022-08-23T03:38:17;9.05;;;6.45;;
65275;SDS011;51875;49.994;14.052;2022-08-23T03:39:34;10.02;;;6.93;;
65275;SDS011;51875;49.994;14.052;2022-08-23T03:40:49;10.55;;;6.72;;
65275;SDS011;51875;49.994;14.052;2022-08-23T03:42:06;9.80;;;6.35;;
65275;SDS011;51875;49.994;14.052;2022-08-23T03:43:22;10.60;;;6.68;;
65275;SDS011;51875;49.994;14.052;2022-08-23T03:44:38;11.35;;;6.97;;
65275;SDS011;51875;49.994;14.052;2022-08-23T03:45:53;10.75;;;6.82;;
65275;SDS011;51875;49.994;14.052;2022-08-23T03:47:09;10.40;;;6.95;;
65275;SDS011;51875;49.994;14.052;2022-08-23T03:48:25;9.65;;;6.88;;
65275;SDS011;51875;49.994;14.052;2022-08-23T03:49:40;8.32;;;6.53;;
65275;SDS011;51875;49.994;14.052;2022-08-23T03:50:56;10.27;;;7.13;;
65275;SDS011;51875;49.994;14.052;2022-08-23T03:52:12;10.18;;;7.30;;
65275;SDS011;51875;49.994;14.052;2022-08-23T03:53:28;9.23;;;6.85;;
65275;SDS011;51875;49.994;14.052;2022-08-23T03:54:44;10.23;;;7.53;;
65275;SDS011;51875;49.994;14.052;2022-08-23T03:56:00;10.73;;;7.15;;
65275;SDS011;51875;49.994;14.052;2022-08-23T03:57:15;10.70;;;7.07;;
65275;SDS011;51875;49.994;14.052;2022-08-23T03:58:31;8.90;;;6.90;;
65275;SDS011;51875;49.994;14.052;2022-08-23T03:59:46;10.15;;;7.10;;
65275;SDS011;51875;49.994;14.052;2022-08-23T04:01:02;10.15;;;7.40;;
65275;SDS011;51875;49.994;14.052;2022-08-23T04:02:19;9.93;;;7.40;;
65275;SDS011;51875;49.994;14.052;2022-08-23T04:03:34;12.98;;;7.57;;
65275;SDS011;51875;49.994;14.052;2022-08-23T04:04:50;11.23;;;7.03;;
65275;SDS011;51875;49.994;14.052;2022-08-23T04:06:05;10.18;;;7.10;;
65275;SDS011;51875;49.994;14.052;2022-08-23T04:07:21;13.30;;;7.03;;
65275;SDS011;51875;49.994;14.052;2022-08-23T04:08:36;11.77;;;6.50;;
65275;SDS011;51875;49.994;14.052;2022-08-23T04:09:52;10.60;;;7.53;;
65275;SDS011;51875;49.994;14.052;2022-08-23T04:11:08;11.40;;;7.72;;
65275;SDS011;51875;49.994;14.052;2022-08-23T04:12:25;11.30;;;7.50;;
65275;SDS011;51875;49.994;14.052;2022-08-23T04:13:41;10.77;;;7.57;;
65275;SDS011;51875;49.994;14.052;2022-08-23T04:14:57;10.90;;;7.60;;
65275;SDS011;51875;49.994;14.052;2022-08-23T04:16:12;10.27;;;7.20;;
65275;SDS011;51875;49.994;14.052;2022-08-23T04:17:28;10.27;;;7.45;;
65275;SDS011;51875;49.994;14.052;2022-08-23T04:18:44;10.60;;;7.80;;
65275;SDS011;51875;49.994;14.052;2022-08-23T04:20:00;13.90;;;7.88;;
65275;SDS011;51875;49.994;14.052;2022-08-23T04:21:18;12.90;;;8.32;;
65275;SDS011;51875;49.994;14.052;2022-08-23T04:22:36;11.35;;;8.40;;
65275;SDS011;51875;49.994;14.052;2022-08-23T04:23:52;12.43;;;8.52;;
65275;SDS011;51875;49.994;14.052;2022-08-23T04:25:08;11.32;;;7.18;;
65275;SDS011;51875;49.994;14.052;2022-08-23T04:26:23;13.13;;;8.07;;
65275;SDS011;51875;49.994;14.052;2022-08-23T04:27:39;10.60;;;7.95;;
65275;SDS011;51875;49.994;14.052;2022-08-23T04:28:55;11.75;;;8.45;;
65275;SDS011;51875;49.994;14.052;2022-08-23T04:30:12;12.95;;;8.63;;
65275;SDS011;51875;49.994;14.052;2022-08-23T04:31:27;10.85;;;7.78;;
65275;SDS011;51875;49.994;14.052;2022-08-23T04:32:43;13.23;;;8.88;;
65275;SDS011;51875;49.994;14.052;2022-08-23T04:33:58;11.23;;;8.40;;
65275;SDS011;51875;49.994;14.052;2022-08-23T04:35:15;13.38;;;9.07;;
65275;SDS011;51875;49.994;14.052;2022-08-23T04:36:31;13.25;;;8.52;;
65275;SDS011;51875;49.994;14.052;2022-08-23T04:37:51;15.70;;;9.15;;
65275;SDS011;51875;49.994;14.052;2022-08-23T04:39:07;13.02;;;8.65;;
65275;SDS011;51875;49.994;14.052;2022-08-23T04:40:24;13.95;;;9.00;;
65275;SDS011;51875;49.994;14.052;2022-08-23T04:41:58;15.10;;;8.45;;
65275;SDS011;51875;49.994;14.052;2022-08-23T04:43:32;13.07;;;8.95;;
65275;SDS011;51875;49.994;14.052;2022-08-23T04:44:48;13.80;;;8.43;;
65275;SDS011;51875;49.994;14.052;2022-08-23T04:46:04;15.75;;;8.98;;
65275;SDS011;51875;49.994;14.052;2022-08-23T04:47:20;13.50;;;8.82;;
65275;SDS011;51875;49.994;14.052;2022-08-23T04:48:35;12.20;;;8.95;;
65275;SDS011;51875;49.994;14.052;2022-08-23T04:49:51;14.82;;;8.98;;
65275;SDS011;51875;49.994;14.052;2022-08-23T04:51:07;12.07;;;8.07;;
65275;SDS011;51875;49.994;14.052;2022-08-23T04:52:22;13.02;;;8.82;;
65275;SDS011;51875;49.994;14.052;2022-08-23T04:53:38;14.07;;;9.25;;
65275;SDS011;51875;49.994;14.052;2022-08-23T04:54:54;19.80;;;9.52;;
65275;SDS011;51875;49.994;14.052;2022-08-23T04:56:09;16.67;;;9.23;;
65275;SDS011;51875;49.994;14.052;2022-08-23T04:57:25;12.63;;;8.75;;
65275;SDS011;51875;49.994;14.052;2022-08-23T04:58:40;16.08;;;9.77;;
65275;SDS011;51875;49.994;14.052;2022-08-23T04:59:56;16.83;;;9.05;;
65275;SDS011;51875;49.994;14.052;2022-08-23T05:01:11;14.23;;;8.73;;
65275;SDS011;51875;49.994;14.052;2022-08-23T05:02:30;16.33;;;9.35;;
65275;SDS011;51875;49.994;14.052;2022-08-23T05:03:45;16.50;;;9.00;;
65275;SDS011;51875;49.994;14.052;2022-08-23T05:05:01;14.13;;;8.88;;
65275;SDS011;51875;49.994;14.052;2022-08-23T05:06:17;14.90;;;9.57;;
65275;SDS011;51875;49.994;14.052;2022-08-23T05:07:33;13.23;;;8.82;;
65275;SDS011;51875;49.994;14.052;2022-08-23T05:08:48;15.63;;;9.40;;
65275;SDS011;51875;49.994;14.052;2022-08-23T05:10:05;15.73;;;9.43;;
65275;SDS011;51875;49.994;14.052;2022-08-23T05:11:22;14.48;;;8.77;;
65275;SDS011;51875;49.994;14.052;2022-08-23T05:12:38;15.15;;;9.18;;
65275;SDS011;51875;49.994;14.052;2022-08-23T05:13:54;14.85;;;8.63;;
65275;SDS011;51875;49.994;14.052;2022-08-23T05:15:11;14.30;;;9.02;;
65275;SDS011;51875;49.994;14.052;2022-08-23T05:16:27;18.55;;;9.75;;
65275;SDS011;51875;49.994;14.052;2022-08-23T05:17:42;12.63;;;8.20;;
65275;SDS011;51875;49.994;14.052;2022-08-23T05:18:58;15.32;;;8.50;;
65275;SDS011;51875;49.994;14.052;2022-08-23T05:20:13;14.13;;;9.55;;
65275;SDS011;51875;49.994;14.052;2022-08-23T05:21:29;15.52;;;9.45;;
65275;SDS011;51875;49.994;14.052;2022-08-23T05:22:45;14.07;;;9.55;;
65275;SDS011;51875;49.994;14.052;2022-08-23T05:24:04;14.18;;;8.80;;
65275;SDS011;51875;49.994;14.052;2022-08-23T05:25:20;15.02;;;9.38;;
65275;SDS011;51875;49.994;14.052;2022-08-23T05:26:35;17.00;;;9.07;;
65275;SDS011;51875;49.994;14.052;2022-08-23T05:27:54;14.80;;;8.43;;
65275;SDS011;51875;49.994;14.052;2022-08-23T05:29:10;14.00;;;8.52;;
65275;SDS011;51875;49.994;14.052;2022-08-23T05:30:26;14.55;;;8.55;;
65275;SDS011;51875;49.994;14.052;2022-08-23T05:31:41;15.38;;;9.05;;
65275;SDS011;51875;49.994;14.052;2022-08-23T05:32:57;13.88;;;8.93;;
65275;SDS011;51875;49.994;14.052;2022-08-23T05:34:12;14.05;;;9.10;;
65275;SDS011;51875;49.994;14.052;2022-08-23T05:35:28;14.20;;;8.27;;
65275;SDS011;51875;49.994;14.052;2022-08-23T05:36:44;13.15;;;8.05;;
65275;SDS011;51875;49.994;14.052;2022-08-23T05:37:59;14.75;;;8.02;;
65275;SDS011;51875;49.994;14.052;2022-08-23T05:39:15;14.20;;;7.07;;
65275;SDS011;51875;49.994;14.052;2022-08-23T05:40:30;15.77;;;8.82;;
65275;SDS011;51875;49.994;14.052;2022-08-23T05:41:46;11.25;;;8.30;;
65275;SDS011;51875;49.994;14.052;2022-08-23T05:43:01;15.38;;;8.38;;
65275;SDS011;51875;49.994;14.052;2022-08-23T05:44:17;13.80;;;8.18;;
65275;SDS011;51875;49.994;14.052;2022-08-23T05:45:33;16.63;;;8.55;;
65275;SDS011;51875;49.994;14.052;2022-08-23T05:46:48;16.38;;;9.00;;
65275;SDS011;51875;49.994;14.052;2022-08-23T05:48:04;13.30;;;7.80;;
65275;SDS011;51875;49.994;14.052;2022-08-23T05:49:19;15.15;;;8.60;;
65275;SDS011;51875;49.994;14.052;2022-08-23T05:50:36;13.70;;;8.43;;
65275;SDS011;51875;49.994;14.052;2022-08-23T05:51:52;16.13;;;9.07;;
65275;SDS011;51875;49.994;14.052;2022-08-23T05:53:08;14.75;;;8.77;;
65275;SDS011;51875;49.994;14.052;2022-08-23T05:54:24;14.60;;;8.15;;
65275;SDS011;51875;49.994;14.052;2022-08-23T05:55:40;13.80;;;8.52;;
65275;SDS011;51875;49.994;14.052;2022-08-23T05:56:55;13.30;;;8.52;;
65275;SDS011;51875;49.994;14.052;2022-08-23T05:58:11;11.68;;;8.57;;
65275;SDS011;51875;49.994;14.052;2022-08-23T05:59:27;11.20;;;7.70;;
65275;SDS011;51875;49.994;14.052;2022-08-23T06:00:42;13.55;;;8.23;;
65275;SDS011;51875;49.994;14.052;2022-08-23T06:01:58;13.13;;;8.25;;
65275;SDS011;51875;49.994;14.052;2022-08-23T06:03:13;10.90;;;7.60;;
65275;SDS011;51875;49.994;14.052;2022-08-23T06:04:29;15.07;;;7.70;;
65275;SDS011;51875;49.994;14.052;2022-08-23T06:05:44;13.60;;;7.88;;
65275;SDS011;51875;49.994;14.052;2022-08-23T06:07:00;12.27;;;7.82;;
65275;SDS011;51875;49.994;14.052;2022-08-23T06:08:16;11.90;;;7.93;;
65275;SDS011;51875;49.994;14.052;2022-08-23T06:09:31;11.43;;;7.95;;
65275;SDS011;51875;49.994;14.052;2022-08-23T06:10:47;12.38;;;8.18;;
65275;SDS011;51875;49.994;14.052;2022-08-23T06:12:03;15.27;;;7.95;;
65275;SDS011;51875;49.994;14.052;2022-08-23T06:13:19;13.50;;;8.48;;
65275;SDS011;51875;49.994;14.052;2022-08-23T06:14:34;12.00;;;7.80;;
65275;SDS011;51875;49.994;14.052;2022-08-23T06:15:49;15.57;;;8.95;;
65275;SDS011;51875;49.994;14.052;2022-08-23T06:17:05;13.48;;;8.13;;
65275;SDS011;51875;49.994;14.052;2022-08-23T06:18:21;12.13;;;7.95;;
65275;SDS011;51875;49.994;14.052;2022-08-23T06:19:37;12.70;;;7.80;;
65275;SDS011;51875;49.994;14.052;2022-08-23T06:21:02;12.45;;;8.07;;
65275;SDS011;51875;49.994;14.052;2022-08-23T06:22:24;15.50;;;8.25;;
65275;SDS011;51875;49.994;14.052;2022-08-23T06:23:40;12.63;;;7.45;;
65275;SDS011;51875;49.994;14.052;2022-08-23T06:24:56;12.57;;;7.63;;
65275;SDS011;51875;49.994;14.052;2022-08-23T06:26:13;12.18;;;8.15;;
65275;SDS011;51875;49.994;14.052;2022-08-23T06:27:34;11.70;;;7.38;;
65275;SDS011;51875;49.994;14.052;2022-08-23T06:28:51;13.80;;;8.00;;
65275;SDS011;51875;49.994;14.052;2022-08-23T06:30:08;14.07;;;7.95;;
65275;SDS011;51875;49.994;14.052;2022-08-23T06:31:25;13.32;;;7.32;;
65275;SDS011;51875;49.994;14.052;2022-08-23T06:32:59;11.77;;;7.43;;
65275;SDS011;51875;49.994;14.052;2022-08-23T06:34:23;12.48;;;7.22;;
65275;SDS011;51875;49.994;14.052;2022-08-23T06:35:47;12.43;;;7.57;;
65275;SDS011;51875;49.994;14.052;2022-08-23T06:37:12;11.85;;;6.93;;
65275;SDS011;51875;49.994;14.052;2022-08-23T06:38:29;10.43;;;7.18;;
65275;SDS011;51875;49.994;14.052;2022-08-23T06:39:44;11.32;;;7.05;;
65275;SDS011;51875;49.994;14.052;2022-08-23T06:41:04;10.73;;;7.53;;
65275;SDS011;51875;49.994;14.052;2022-08-23T06:42:24;15.98;;;8.00;;
65275;SDS011;51875;49.994;14.052;2022-08-23T06:43:40;14.20;;;7.60;;
65275;SDS011;51875;49.994;14.052;2022-08-23T06:44:56;11.02;;;7.78;;
65275;SDS011;51875;49.994;14.052;2022-08-23T06:46:15;12.80;;;7.65;;
65275;SDS011;51875;49.994;14.052;2022-08-23T06:47:35;13.07;;;7.28;;
65275;SDS011;51875;49.994;14.052;2022-08-23T06:48:51;10.73;;;7.05;;
65275;SDS011;51875;49.994;14.052;2022-08-23T06:50:07;11.82;;;7.28;;
65275;SDS011;51875;49.994;14.052;2022-08-23T06:51:24;10.10;;;6.60;;
65275;SDS011;51875;49.994;14.052;2022-08-23T06:52:45;11.15;;;7.18;;
65275;SDS011;51875;49.994;14.052;2022-08-23T06:54:03;10.98;;;7.57;;
65275;SDS011;51875;49.994;14.052;2022-08-23T06:55:22;10.07;;;6.75;;
65275;SDS011;51875;49.994;14.052;2022-08-23T06:56:38;9.27;;;6.80;;
65275;SDS011;51875;49.994;14.052;2022-08-23T06:57:54;10.82;;;6.93;;
65275;SDS011;51875;49.994;14.052;2022-08-23T06:59:10;13.55;;;7.28;;
65275;SDS011;51875;49.994;14.052;2022-08-23T07:00:26;11.77;;;6.95;;
65275;SDS011;51875;49.994;14.052;2022-08-23T07:01:43;9.45;;;6.65;;
65275;SDS011;51875;49.994;14.052;2022-08-23T07:03:01;12.57;;;8.00;;
65275;SDS011;51875;49.994;14.052;2022-08-23T07:04:24;11.75;;;7.25;;
65275;SDS011;51875;49.994;14.052;2022-08-23T07:05:44;10.32;;;6.78;;
65275;SDS011;51875;49.994;14.052;2022-08-23T07:07:00;10.73;;;7.60;;
65275;SDS011;51875;49.994;14.052;2022-08-23T07:08:17;10.80;;;7.05;;
65275;SDS011;51875;49.994;14.052;2022-08-23T07:09:33;11.93;;;8.30;;
65275;SDS011;51875;49.994;14.052;2022-08-23T07:10:49;10.60;;;7.40;;
65275;SDS011;51875;49.994;14.052;2022-08-23T07:12:05;12.93;;;6.95;;
65275;SDS011;51875;49.994;14.052;2022-08-23T07:13:21;10.90;;;6.93;;
65275;SDS011;51875;49.994;14.052;2022-08-23T07:14:37;10.52;;;7.28;;
65275;SDS011;51875;49.994;14.052;2022-08-23T07:15:59;12.15;;;7.55;;
65275;SDS011;51875;49.994;14.052;2022-08-23T07:17:14;14.57;;;7.63;;
65275;SDS011;51875;49.994;14.052;2022-08-23T07:18:30;10.77;;;7.32;;
65275;SDS011;51875;49.994;14.052;2022-08-23T07:19:46;10.32;;;6.63;;
65275;SDS011;51875;49.994;14.052;2022-08-23T07:21:03;14.43;;;7.75;;
65275;SDS011;51875;49.994;14.052;2022-08-23T07:22:19;10.85;;;7.22;;
65275;SDS011;51875;49.994;14.052;2022-08-23T07:23:35;11.63;;;7.55;;
65275;SDS011;51875;49.994;14.052;2022-08-23T07:24:51;10.10;;;7.35;;
65275;SDS011;51875;49.994;14.052;2022-08-23T07:26:08;10.93;;;6.78;;
65275;SDS011;51875;49.994;14.052;2022-08-23T07:27:26;11.30;;;6.82;;
65275;SDS011;51875;49.994;14.052;2022-08-23T07:28:41;9.60;;;6.38;;
65275;SDS011;51875;49.994;14.052;2022-08-23T07:29:57;12.25;;;7.28;;
65275;SDS011;51875;49.994;14.052;2022-08-23T07:31:14;10.77;;;7.47;;
65275;SDS011;51875;49.994;14.052;2022-08-23T07:32:32;9.93;;;6.82;;
65275;SDS011;51875;49.994;14.052;2022-08-23T07:33:47;11.45;;;6.68;;
65275;SDS011;51875;49.994;14.052;2022-08-23T07:35:05;13.38;;;7.57;;
65275;SDS011;51875;49.994;14.052;2022-08-23T07:36:21;11.32;;;6.97;;
65275;SDS011;51875;49.994;14.052;2022-08-23T07:37:40;10.43;;;6.80;;
65275;SDS011;51875;49.994;14.052;2022-08-23T07:38:56;9.70;;;7.03;;